Time;durP1;ratioP1;P1;durP2;ratioP2;P2;SDS_P1;SDS_P2;PMS_P1;PMS_P2;Temp;Humidity;BMP_temperature;BMP_pressure;BME280_temperature;BME280_humidity;BME280_pressure;Samples;Min_cycle;Max_cycle;Signal;HPM_P1;HPM_P2
2024/01/01 00:01:47;;;;;;;12.00;4.85;;;;;;;8.13;96.33;99747.91;5014708;28;20037;-84
2024/01/01 00:04:12;;;;;;;13.15;5.32;;;;;;;8.10;96.85;99759.31;5014178;28;20120;-82
2024/01/01 00:06:37;;;;;;;14.90;4.03;;;;;;;8.10;95.75;99748.81;5014470;28;20048;-83
2024/01/01 00:09:03;;;;;;;11.35;4.32;;;;;;;8.12;95.32;99760.19;5012646;28;20068;-82
2024/01/01 00:11:32;;;;;;;8.52;3.10;;;;;;;8.15;94.05;99754.06;5014023;28;20041;-83
2024/01/01 00:13:57;;;;;;;11.50;2.95;;;;;;;8.20;94.19;99776.00;5013792;28;20029;-83
2024/01/01 00:16:22;;;;;;;12.27;3.63;;;;;;;8.11;96.03;99779.50;5014019;28;20496;-83
2024/01/01 00:18:48;;;;;;;11.90;3.13;;;;;;;8.04;95.71;99780.34;5014037;28;20030;-83
2024/01/01 00:21:13;;;;;;;7.68;2.28;;;;;;;7.72;94.36;99736.38;5012396;28;20076;-83
2024/01/01 00:23:39;;;;;;;6.72;2.10;;;;;;;7.73;94.37;99746.03;5013541;28;20157;-83
2024/01/01 00:26:05;;;;;;;5.13;2.00;;;;;;;7.78;95.58;99786.34;5012361;28;20132;-84
2024/01/01 00:28:30;;;;;;;6.03;2.13;;;;;;;7.69;96.04;99788.94;5013743;28;20061;-84
2024/01/01 00:30:56;;;;;;;6.20;2.35;;;;;;;7.59;97.85;99778.38;5012843;28;20471;-84
2024/01/01 00:33:21;;;;;;;15.38;2.65;;;;;;;7.51;98.18;99771.31;5013345;28;20072;-84
2024/01/01 00:35:48;;;;;;;8.40;2.60;;;;;;;7.26;100.00;99761.53;5013621;28;20056;-83
2024/01/01 00:38:13;;;;;;;7.63;2.90;;;;;;;7.21;99.72;99764.13;5013915;28;20035;-83
2024/01/01 00:40:39;;;;;;;7.47;3.15;;;;;;;7.23;100.00;99782.50;5013891;28;20033;-83
2024/01/01 00:43:04;;;;;;;8.57;2.67;;;;;;;7.17;100.00;99766.72;5013635;28;20046;-83
2024/01/01 00:45:30;;;;;;;7.93;2.90;;;;;;;7.23;100.00;99778.13;5012402;28;20080;-83
2024/01/01 00:47:55;;;;;;;4.93;2.40;;;;;;;6.84;100.00;99720.94;5013469;28;20107;-83
2024/01/01 00:50:20;;;;;;;6.97;3.00;;;;;;;7.09;100.00;99797.31;4996023;28;20038;-84
2024/01/01 00:52:46;;;;;;;7.90;2.78;;;;;;;6.99;100.00;99781.47;5012486;28;20038;-83
2024/01/01 00:55:11;;;;;;;6.82;2.53;;;;;;;6.91;100.00;99775.28;4995867;28;20040;-83
2024/01/01 00:57:36;;;;;;;5.82;2.60;;;;;;;6.81;100.00;99762.97;5012298;28;20033;-84
2024/01/01 01:00:02;;;;;;;5.25;3.03;;;;;;;6.80;100.00;99794.44;5013373;28;20536;-83
2024/01/01 01:02:28;;;;;;;6.93;3.05;;;;;;;6.69;100.00;99766.34;5013338;28;20037;-83
2024/01/01 01:04:53;;;;;;;6.50;2.85;;;;;;;6.71;100.00;99790.84;5013304;28;20172;-83
2024/01/01 01:07:18;;;;;;;7.57;3.38;;;;;;;6.63;100.00;99778.53;5013400;28;20085;-83
2024/01/01 01:09:44;;;;;;;7.03;3.10;;;;;;;6.63;100.00;99789.03;5011949;28;20030;-82
2024/01/01 01:12:09;;;;;;;8.82;3.67;;;;;;;6.50;100.00;99767.03;5012130;28;20034;-83
2024/01/01 01:14:35;;;;;;;9.05;3.70;;;;;;;6.61;100.00;99785.50;5013230;28;20112;-83
2024/01/01 01:17:00;;;;;;;8.65;3.13;;;;;;;6.58;100.00;99788.09;5013446;28;20061;-83
2024/01/01 01:19:26;;;;;;;7.80;3.05;;;;;;;6.57;100.00;99813.47;5013208;28;20497;-83
2024/01/01 01:21:51;;;;;;;7.38;3.25;;;;;;;6.43;100.00;99775.72;5013466;28;20049;-83
2024/01/01 01:24:18;;;;;;;11.93;3.17;;;;;;;6.47;100.00;99783.63;5012041;28;20415;-83
2024/01/01 01:26:43;;;;;;;7.53;3.03;;;;;;;6.61;100.00;99801.25;5012033;28;20552;-87
2024/01/01 01:29:09;;;;;;;9.27;2.78;;;;;;;6.65;100.00;99808.31;4995459;28;20062;-86
2024/01/01 01:31:35;;;;;;;7.43;2.63;;;;;;;6.56;100.00;99795.09;5010408;28;20113;-86
2024/01/01 01:34:00;;;;;;;8.23;2.70;;;;;;;6.53;100.00;99795.94;5010957;28;20144;-89
2024/01/01 01:36:26;;;;;;;7.15;2.17;;;;;;;6.63;100.00;99803.03;5011752;28;20389;-88
2024/01/01 01:38:51;;;;;;;5.80;2.22;;;;;;;6.67;100.00;99806.56;5011507;28;20041;-88
2024/01/01 01:41:17;;;;;;;9.85;2.90;;;;;;;6.64;100.00;99802.19;5013706;28;20026;-88
2024/01/01 01:43:42;;;;;;;10.10;2.80;;;;;;;6.68;100.00;99806.59;5016389;28;20033;-86
2024/01/01 01:46:08;;;;;;;9.02;2.67;;;;;;;6.66;100.00;99810.06;5015048;28;20030;-86
2024/01/01 01:48:34;;;;;;;7.45;2.83;;;;;;;6.51;100.00;99774.06;4998678;28;20037;-87
2024/01/01 01:50:59;;;;;;;8.07;2.30;;;;;;;6.60;100.00;99807.38;5014679;28;20438;-85
2024/01/01 01:53:26;;;;;;;7.60;2.33;;;;;;;6.46;100.00;99791.47;5015068;28;20038;-86
2024/01/01 01:55:54;;;;;;;9.40;2.63;;;;;;;6.48;100.00;99785.38;5015104;28;20070;-86
2024/01/01 01:58:21;;;;;;;6.72;2.60;;;;;;;6.55;100.00;99799.44;5016192;28;20041;-83
2024/01/01 02:00:48;;;;;;;11.65;2.88;;;;;;;6.46;100.00;99783.59;5016152;28;20042;-82
2024/01/01 02:03:14;;;;;;;9.95;2.58;;;;;;;6.57;100.00;99809.97;5015784;28;20462;-82
2024/01/01 02:05:39;;;;;;;10.95;2.75;;;;;;;6.53;100.00;99814.31;5015731;28;20033;-83
2024/01/01 02:08:06;;;;;;;8.43;2.92;;;;;;;6.60;100.00;99794.25;5016234;28;20484;-82
2024/01/01 02:10:31;;;;;;;9.50;2.80;;;;;;;6.53;100.00;99785.44;5015843;28;20038;-83
2024/01/01 02:12:57;;;;;;;10.48;3.10;;;;;;;6.53;100.00;99783.69;5015603;28;20184;-83
2024/01/01 02:15:22;;;;;;;13.68;3.22;;;;;;;6.61;100.00;99796.00;5015950;28;20070;-84
2024/01/01 02:17:48;;;;;;;8.45;2.60;;;;;;;6.53;100.00;99756.56;5014796;28;20065;-83
2024/01/01 02:20:14;;;;;;;10.98;2.72;;;;;;;6.72;100.00;99797.88;5015816;28;20406;-83
2024/01/01 02:22:40;;;;;;;7.47;2.33;;;;;;;6.65;100.00;99782.06;5016083;28;20038;-83
2024/01/01 02:25:06;;;;;;;8.07;2.50;;;;;;;6.73;100.00;99802.25;5015614;28;20044;-83
2024/01/01 02:27:34;;;;;;;10.02;2.40;;;;;;;6.65;100.00;99789.94;5015330;28;20041;-83
2024/01/01 02:29:59;;;;;;;10.93;2.80;;;;;;;6.69;100.00;99787.34;5014171;28;20029;-82
2024/01/01 02:32:25;;;;;;;10.10;2.72;;;;;;;6.71;100.00;99788.22;5015260;28;20037;-82
2024/01/01 02:34:50;;;;;;;13.82;2.60;;;;;;;6.69;100.00;99789.09;5015391;28;20036;-82
2024/01/01 02:37:16;;;;;;;10.77;2.78;;;;;;;6.76;100.00;99809.25;5015373;28;20398;-82
2024/01/01 02:39:41;;;;;;;9.90;2.60;;;;;;;6.75;100.00;99818.91;5015060;28;20426;-83
2024/01/01 02:42:07;;;;;;;11.77;2.70;;;;;;;6.71;100.00;99805.72;5014050;28;20168;-83
2024/01/01 02:44:39;;;;;;;17.02;2.97;;;;;;;6.75;100.00;99818.03;5015278;28;20121;-89
2024/01/01 02:47:05;;;;;;;15.93;3.13;;;;;;;6.67;100.00;99806.56;5015604;28;20030;-84
2024/01/01 02:49:30;;;;;;;13.52;3.25;;;;;;;6.64;100.00;99802.19;5013846;28;20497;-83
2024/01/01 02:51:56;;;;;;;10.30;2.58;;;;;;;6.72;100.00;99831.09;5030506;28;20038;-83
2024/01/01 02:54:21;;;;;;;12.52;2.35;;;;;;;6.62;100.00;99819.63;5029777;28;20033;-83
2024/01/01 02:56:47;;;;;;;8.02;2.63;;;;;;;6.71;100.00;99842.47;5015227;28;20034;-83
2024/01/01 02:59:13;;;;;;;13.10;2.58;;;;;;;6.65;100.00;99814.44;5015372;28;20050;-82
2024/01/01 03:01:38;;;;;;;11.57;2.65;;;;;;;6.74;100.00;99837.28;5015136;28;20026;-82
2024/01/01 03:04:04;;;;;;;11.82;2.97;;;;;;;6.65;100.00;99824.06;5015158;28;20463;-82
2024/01/01 03:06:29;;;;;;;9.95;2.90;;;;;;;6.74;100.00;99832.91;4997458;28;20030;-83
2024/01/01 03:08:54;;;;;;;14.00;3.00;;;;;;;6.76;100.00;99828.53;4997342;28;20080;-82
2024/01/01 03:11:20;;;;;;;15.30;3.22;;;;;;;6.74;100.00;99825.03;5029990;28;20114;-83
2024/01/01 03:13:46;;;;;;;16.45;2.90;;;;;;;6.73;100.00;99833.75;5013722;28;20026;-83
2024/01/01 03:16:13;;;;;;;10.25;2.53;;;;;;;6.73;100.00;99831.13;5014952;28;20489;-83
2024/01/01 03:18:39;;;;;;;12.15;2.80;;;;;;;6.73;100.00;99833.75;5014888;28;20026;-82
2024/01/01 03:21:04;;;;;;;15.90;3.22;;;;;;;6.68;100.00;99834.56;5014515;28;20398;-82
2024/01/01 03:23:30;;;;;;;11.93;2.42;;;;;;;6.73;100.00;99846.03;5015013;28;20052;-82
2024/01/01 03:25:55;;;;;;;13.90;2.90;;;;;;;6.77;100.00;99847.81;5014578;28;20033;-82
2024/01/01 03:28:21;;;;;;;12.65;2.55;;;;;;;6.71;100.00;99843.34;5015060;28;20491;-83
2024/01/01 03:30:46;;;;;;;11.02;2.83;;;;;;;6.75;100.00;99850.41;5014518;28;20032;-82
2024/01/01 03:33:12;;;;;;;9.95;2.92;;;;;;;6.72;100.00;99826.75;5014919;28;20177;-82
2024/01/01 03:35:37;;;;;;;13.00;2.47;;;;;;;6.50;100.00;99815.13;5014539;28;20087;-82
2024/01/01 03:38:03;;;;;;;11.48;2.20;;;;;;;6.67;100.00;99846.81;5014684;28;20117;-82
2024/01/01 03:40:30;;;;;;;11.32;2.50;;;;;;;6.62;100.00;99835.38;5014637;28;20045;-82
2024/01/01 03:42:55;;;;;;;13.15;2.75;;;;;;;6.75;100.00;99863.53;5029425;28;20038;-82
2024/01/01 03:45:21;;;;;;;11.77;2.42;;;;;;;6.71;100.00;99830.22;5014305;28;20071;-82
2024/01/01 03:47:46;;;;;;;13.70;2.47;;;;;;;6.73;100.00;99840.75;5014039;28;20467;-82
2024/01/01 03:50:14;;;;;;;11.90;2.53;;;;;;;6.73;100.00;99849.53;5013897;28;20228;-82
2024/01/01 03:52:39;;;;;;;12.40;2.58;;;;;;;6.69;100.00;99836.34;5014306;28;20036;-82
2024/01/01 03:55:05;;;;;;;20.00;3.05;;;;;;;6.70;100.00;99851.22;5014447;28;20034;-82
2024/01/01 03:57:33;;;;;;;12.40;2.90;;;;;;;6.62;100.00;99817.00;5013820;28;20513;-82
2024/01/01 03:59:59;;;;;;;19.10;2.85;;;;;;;6.68;100.00;99824.97;5029006;28;20121;-82
2024/01/01 04:02:25;;;;;;;9.90;2.40;;;;;;;6.43;100.00;99797.59;5014111;28;20038;-82
2024/01/01 04:04:50;;;;;;;13.85;2.63;;;;;;;6.73;100.00;99841.66;5013917;28;20085;-82
2024/01/01 04:07:17;;;;;;;10.20;2.67;;;;;;;6.70;100.00;99846.84;5013982;28;20436;-82
2024/01/01 04:09:43;;;;;;;12.98;2.63;;;;;;;6.65;100.00;99837.19;5013981;28;20382;-82
2024/01/01 04:12:08;;;;;;;16.08;2.80;;;;;;;6.63;100.00;99839.78;5013896;28;20459;-82
2024/01/01 04:14:34;;;;;;;12.55;3.00;;;;;;;6.75;100.00;99916.03;5012570;28;20052;-82
2024/01/01 04:16:59;;;;;;;10.63;2.63;;;;;;;6.75;100.00;99879.28;5012556;28;20117;-82
2024/01/01 04:19:24;;;;;;;10.50;2.72;;;;;;;6.71;100.00;99845.09;5012203;28;20406;-82
2024/01/01 04:21:50;;;;;;;13.57;2.22;;;;;;;6.77;100.00;99864.44;5013573;28;20081;-83
2024/01/01 04:24:15;;;;;;;12.93;2.50;;;;;;;6.78;100.00;99860.94;5013695;28;20076;-82
2024/01/01 04:26:41;;;;;;;9.60;2.33;;;;;;;6.79;100.00;99872.31;5013707;28;20381;-82
2024/01/01 04:29:06;;;;;;;9.10;2.28;;;;;;;6.61;100.00;99846.75;5013619;28;20149;-81
2024/01/01 04:31:31;;;;;;;6.35;1.85;;;;;;;6.79;100.00;99861.81;5029018;28;20037;-82
2024/01/01 04:33:57;;;;;;;9.90;2.20;;;;;;;6.69;100.00;99849.47;5013663;28;20030;-82
2024/01/01 04:36:22;;;;;;;10.07;2.28;;;;;;;6.58;100.00;99832.72;5012231;28;20044;-82
2024/01/01 04:38:48;;;;;;;10.63;2.20;;;;;;;6.70;100.00;99853.84;5013286;28;20022;-82
2024/01/01 04:41:14;;;;;;;10.80;2.55;;;;;;;6.58;100.00;99830.97;5013774;28;20352;-82
2024/01/01 04:43:40;;;;;;;7.72;2.03;;;;;;;6.77;100.00;99856.56;5013557;28;20441;-83
2024/01/01 04:46:06;;;;;;;10.05;2.70;;;;;;;6.66;100.00;99841.56;5013394;28;20034;-82
2024/01/01 04:48:32;;;;;;;9.85;2.35;;;;;;;6.81;100.00;99859.19;5013446;28;20038;-82
2024/01/01 04:50:58;;;;;;;14.60;2.42;;;;;;;6.78;100.00;99862.69;5013367;28;20053;-82
2024/01/01 04:53:24;;;;;;;10.98;2.88;;;;;;;6.83;100.00;99875.88;5013380;28;20038;-82
2024/01/01 04:55:49;;;;;;;12.00;2.70;;;;;;;6.77;100.00;99866.19;5013427;28;20455;-82
2024/01/01 04:58:15;;;;;;;9.90;2.42;;;;;;;6.67;100.00;99859.06;5013395;28;20057;-82
2024/01/01 05:00:40;;;;;;;14.95;2.85;;;;;;;6.71;100.00;99873.97;5013603;28;20490;-83
2024/01/01 05:03:05;;;;;;;8.80;2.70;;;;;;;6.70;100.00;99899.34;5028350;28;20062;-82
2024/01/01 05:05:31;;;;;;;10.48;2.30;;;;;;;6.71;100.00;99877.47;5012069;28;20517;-83
2024/01/01 05:07:56;;;;;;;18.48;3.22;;;;;;;6.74;100.00;99885.41;5013301;28;20033;-83
2024/01/01 05:10:21;;;;;;;9.50;2.47;;;;;;;6.76;100.00;99888.91;5028557;28;20034;-82
2024/01/01 05:12:47;;;;;;;8.15;2.28;;;;;;;6.63;100.00;99870.38;5012941;28;20034;-83
2024/01/01 05:15:12;;;;;;;9.52;2.30;;;;;;;6.66;100.00;99870.44;5013488;28;20042;-82
2024/01/01 05:17:38;;;;;;;9.48;2.47;;;;;;;6.74;100.00;99897.66;5016550;28;20042;-83
2024/01/01 05:20:04;;;;;;;8.88;2.28;;;;;;;6.76;100.00;99904.66;5016824;28;20040;-82
2024/01/01 05:22:30;;;;;;;11.85;2.35;;;;;;;6.66;100.00;99876.56;5015634;28;20061;-82
2024/01/01 05:24:56;;;;;;;6.30;2.40;;;;;;;6.80;100.00;99895.06;5015682;28;20034;-82
2024/01/01 05:27:21;;;;;;;9.80;2.40;;;;;;;6.77;100.00;99918.69;5016907;28;20112;-82
2024/01/01 05:29:46;;;;;;;12.48;2.65;;;;;;;6.75;100.00;99913.41;5016922;28;20382;-82
2024/01/01 05:32:12;;;;;;;6.85;1.98;;;;;;;6.75;100.00;99904.66;5031820;28;20049;-82
2024/01/01 05:34:37;;;;;;;10.70;2.47;;;;;;;6.77;100.00;99898.56;5016767;28;20072;-82
2024/01/01 05:37:03;;;;;;;12.45;2.65;;;;;;;6.81;100.00;99909.09;5016509;28;20034;-81
2024/01/01 05:39:29;;;;;;;9.20;2.45;;;;;;;6.65;100.00;99871.31;5016624;28;20505;-82
2024/01/01 05:41:54;;;;;;;9.85;2.60;;;;;;;6.81;100.00;99909.09;5016337;28;20037;-82
2024/01/01 05:44:19;;;;;;;9.38;2.60;;;;;;;6.83;100.00;99913.50;5016328;28;20096;-82
2024/01/01 05:46:45;;;;;;;10.05;2.53;;;;;;;6.81;100.00;99901.22;5031751;28;20466;-82
2024/01/01 05:49:10;;;;;;;12.77;2.70;;;;;;;6.77;100.00;99905.56;5016708;28;20113;-82
2024/01/01 05:51:35;;;;;;;7.72;2.47;;;;;;;6.84;100.00;99932.75;5016359;28;20465;-83
2024/01/01 05:54:01;;;;;;;9.95;2.30;;;;;;;6.77;100.00;99923.94;5016406;28;20034;-83
2024/01/01 05:56:26;;;;;;;6.40;2.40;;;;;;;6.71;100.00;99916.84;5016372;28;20037;-82
2024/01/01 05:58:52;;;;;;;7.88;2.22;;;;;;;6.78;100.00;99928.31;5031812;28;20034;-82
2024/01/01 06:01:17;;;;;;;8.50;2.42;;;;;;;6.55;100.00;99912.28;5015939;28;20026;-82
2024/01/01 06:03:44;;;;;;;7.43;2.25;;;;;;;6.71;100.00;99934.38;5016033;28;20064;-83
2024/01/01 06:06:10;;;;;;;6.20;2.35;;;;;;;6.67;100.00;99957.06;5031249;28;20030;-83
2024/01/01 06:08:35;;;;;;;11.52;2.60;;;;;;;6.66;100.00;99942.19;5016033;28;20351;-82
2024/01/01 06:11:01;;;;;;;9.40;2.17;;;;;;;6.64;100.00;99950.94;5016216;28;20026;-82
2024/01/01 06:13:26;;;;;;;13.70;2.28;;;;;;;6.61;100.00;99954.38;5016075;28;20079;-82
2024/01/01 06:15:52;;;;;;;7.93;2.50;;;;;;;6.60;100.00;99959.63;5016182;28;20454;-82
2024/01/01 06:18:18;;;;;;;11.20;2.53;;;;;;;6.61;100.00;99972.75;5031119;28;20041;-83
2024/01/01 06:20:43;;;;;;;10.60;2.22;;;;;;;6.55;100.00;99949.03;5014683;28;20054;-83
2024/01/01 06:23:08;;;;;;;8.82;2.15;;;;;;;6.51;100.00;99955.13;5015990;28;20061;-82
2024/01/01 06:25:34;;;;;;;7.60;2.08;;;;;;;6.56;100.00;99965.69;5014594;28;20037;-82
2024/01/01 06:27:59;;;;;;;8.77;2.55;;;;;;;6.50;100.00;99966.47;5013456;28;20038;-82
2024/01/01 06:30:25;;;;;;;11.55;3.05;;;;;;;6.50;100.00;99983.09;5015518;28;20060;-83
2024/01/01 06:32:51;;;;;;;10.80;2.20;;;;;;;6.58;100.00;99985.81;5015525;28;20455;-82
2024/01/01 06:35:16;;;;;;;7.82;2.10;;;;;;;6.53;100.00;99993.66;5015811;28;20542;-82
2024/01/01 06:37:42;;;;;;;7.28;2.15;;;;;;;6.41;100.00;99976.84;5015644;28;20026;-82
2024/01/01 06:40:08;;;;;;;7.57;2.22;;;;;;;6.48;100.00;100000.59;5015428;28;20034;-83
2024/01/01 06:42:33;;;;;;;12.30;2.60;;;;;;;6.34;100.00;99988.13;5015539;28;20459;-82
2024/01/01 06:45:07;;;;;;;11.93;2.30;;;;;;;6.36;100.00;99999.53;5015231;28;20030;-82
2024/01/01 06:47:33;;;;;;;12.85;2.33;;;;;;;6.41;100.00;100017.09;5015219;28;20129;-82
2024/01/01 06:49:58;;;;;;;7.85;2.58;;;;;;;6.31;100.00;100012.59;5030665;28;20120;-82
2024/01/01 06:52:24;;;;;;;10.25;2.40;;;;;;;6.32;100.00;100022.22;5014131;28;20113;-82
2024/01/01 06:54:49;;;;;;;8.75;2.25;;;;;;;6.42;100.00;100037.22;5030266;28;20500;-82
2024/01/01 06:57:14;;;;;;;7.47;2.38;;;;;;;6.35;100.00;100017.03;5015250;28;20026;-83
2024/01/01 06:59:40;;;;;;;7.00;2.00;;;;;;;6.38;100.00;100016.16;5014990;28;20037;-82
2024/01/01 07:02:05;;;;;;;10.65;2.35;;;;;;;6.46;100.00;100040.78;5015064;28;20450;-82
2024/01/01 07:04:31;;;;;;;13.68;2.33;;;;;;;6.30;100.00;100018.69;5014822;28;20092;-82
2024/01/01 07:06:56;;;;;;;12.65;3.08;;;;;;;6.51;100.00;100040.00;5015534;28;20069;-82
2024/01/01 07:09:22;;;;;;;7.18;2.28;;;;;;;6.50;100.00;100046.09;5015276;28;20034;-83
2024/01/01 07:11:48;;;;;;;12.57;2.67;;;;;;;6.55;100.00;100056.66;5014549;28;20034;-82
2024/01/01 07:14:13;;;;;;;11.85;2.50;;;;;;;6.43;100.00;100025.00;5030044;28;20037;-82
2024/01/01 07:16:38;;;;;;;9.60;2.13;;;;;;;6.47;100.00;100039.94;5014886;28;20030;-82
2024/01/01 07:19:04;;;;;;;9.98;2.28;;;;;;;6.56;100.00;100058.44;5030031;28;20030;-82
2024/01/01 07:21:30;;;;;;;11.93;2.58;;;;;;;6.47;100.00;100058.31;5029778;28;20088;-82
2024/01/01 07:23:55;;;;;;;10.10;2.45;;;;;;;6.50;100.00;100056.59;5015015;28;20038;-82
2024/01/01 07:26:20;;;;;;;10.93;2.35;;;;;;;6.50;100.00;100058.31;5015022;28;20034;-84
2024/01/01 07:28:46;;;;;;;9.50;2.70;;;;;;;6.38;100.00;100055.53;5014660;28;20033;-82
2024/01/01 07:31:11;;;;;;;11.00;2.25;;;;;;;6.47;100.00;100066.19;5014282;28;20509;-82
2024/01/01 07:33:38;;;;;;;10.35;2.38;;;;;;;6.41;100.00;100076.56;5014497;28;20100;-83
2024/01/01 07:36:08;;;;;;;10.40;3.05;;;;;;;6.44;100.00;100072.25;5014772;28;20030;-83
2024/01/01 07:38:33;;;;;;;10.32;2.95;;;;;;;6.32;100.00;100052.81;5013887;28;20553;-83
2024/01/01 07:40:58;;;;;;;8.15;2.35;;;;;;;6.15;100.00;100032.44;5014210;28;20038;-82
2024/01/01 07:43:24;;;;;;;9.20;2.30;;;;;;;6.34;100.00;100072.06;5013867;28;20466;-82
2024/01/01 07:45:49;;;;;;;10.57;2.40;;;;;;;6.34;100.00;100093.97;5013989;28;20032;-83
2024/01/01 07:48:15;;;;;;;8.18;2.53;;;;;;;6.34;100.00;100090.44;5013569;28;20080;-83
2024/01/01 07:50:40;;;;;;;9.07;2.42;;;;;;;6.37;100.00;100095.75;5013868;28;20488;-83
2024/01/01 07:53:06;;;;;;;13.18;2.63;;;;;;;6.33;100.00;100088.69;5012539;28;20034;-83
2024/01/01 07:55:32;;;;;;;9.00;2.60;;;;;;;6.19;100.00;100070.09;5012526;28;20129;-83
2024/01/01 07:57:57;;;;;;;10.30;2.55;;;;;;;6.32;100.00;100087.81;5013593;28;20041;-83
2024/01/01 08:00:23;;;;;;;13.18;2.78;;;;;;;6.37;100.00;100107.13;5029038;28;20037;-83
2024/01/01 08:02:49;;;;;;;8.85;2.17;;;;;;;6.37;100.00;100104.50;5013417;28;20033;-83
2024/01/01 08:05:15;;;;;;;7.85;2.60;;;;;;;6.27;100.00;100092.09;5012603;28;20431;-83
2024/01/01 08:07:47;;;;;;;13.18;2.40;;;;;;;6.34;100.00;100111.44;5013568;28;20557;-83
2024/01/01 08:10:16;;;;;;;11.48;2.70;;;;;;;6.03;100.00;100077.72;5013461;28;20129;-83
2024/01/01 08:12:41;;;;;;;12.10;2.78;;;;;;;6.22;100.00;100105.16;5013644;28;20041;-83
2024/01/01 08:15:08;;;;;;;11.18;2.47;;;;;;;6.17;100.00;100106.81;5013106;28;20356;-83
2024/01/01 08:17:33;;;;;;;12.93;2.58;;;;;;;6.20;100.00;100111.22;5013545;28;20076;-83
2024/01/01 08:19:58;;;;;;;7.13;2.20;;;;;;;6.32;100.00;100136.78;5011884;28;20465;-83
2024/01/01 08:22:24;;;;;;;13.52;2.88;;;;;;;6.34;100.00;100138.59;5013683;28;20046;-83
2024/01/01 08:24:49;;;;;;;8.88;2.35;;;;;;;6.34;100.00;100146.44;5013329;28;20033;-83
2024/01/01 08:27:15;;;;;;;12.32;2.83;;;;;;;6.18;100.00;100116.44;5013354;28;20042;-83
2024/01/01 08:29:41;;;;;;;10.95;2.38;;;;;;;6.30;100.00;100138.50;5013526;28;20113;-83
2024/01/01 08:32:07;;;;;;;12.57;2.92;;;;;;;6.33;100.00;100152.53;5013123;28;20025;-83
2024/01/01 08:34:32;;;;;;;9.35;2.35;;;;;;;6.09;100.00;100107.56;5012218;28;20034;-83
2024/01/01 08:37:01;;;;;;;8.82;2.83;;;;;;;6.30;100.00;100142.00;5013388;28;20181;-83
2024/01/01 08:39:27;;;;;;;11.48;2.40;;;;;;;6.38;100.00;100161.38;5011938;28;20034;-83
2024/01/01 08:41:53;;;;;;;7.75;2.25;;;;;;;6.43;100.00;100153.59;5013122;28;20038;-83
2024/01/01 08:44:18;;;;;;;8.40;2.30;;;;;;;6.35;100.00;100142.09;5013153;28;20057;-83
2024/01/01 08:46:44;;;;;;;8.27;2.30;;;;;;;6.54;100.00;100178.25;5013037;28;20034;-82
2024/01/01 08:49:09;;;;;;;9.68;2.65;;;;;;;6.59;100.00;100186.19;5013140;28;20030;-83
2024/01/01 08:51:35;;;;;;;14.65;2.55;;;;;;;6.65;100.00;100188.94;5014346;28;20491;-83
2024/01/01 08:54:03;;;;;;;11.75;2.60;;;;;;;6.68;100.00;100187.25;5017198;28;20042;-83
2024/01/01 08:56:28;;;;;;;9.80;2.75;;;;;;;6.67;100.00;100188.09;5017436;28;20493;-83
2024/01/01 08:58:54;;;;;;;19.05;3.42;;;;;;;6.67;100.00;100192.44;5016790;28;20073;-83
2024/01/01 09:01:19;;;;;;;8.80;2.50;;;;;;;6.67;100.00;100200.34;5017062;28;20067;-84
2024/01/01 09:03:45;;;;;;;9.20;2.67;;;;;;;6.66;100.00;100185.44;5015484;28;20038;-83
2024/01/01 09:06:10;;;;;;;7.32;2.45;;;;;;;6.68;100.00;100189.88;5017073;28;20089;-83
2024/01/01 09:08:36;;;;;;;10.55;2.67;;;;;;;6.64;100.00;100182.81;5016909;28;20413;-84
2024/01/01 09:11:02;;;;;;;9.20;2.90;;;;;;;6.74;100.00;100199.59;5016624;28;20038;-83
2024/01/01 09:13:28;;;;;;;10.73;2.78;;;;;;;6.63;100.00;100182.75;5016806;28;20041;-83
2024/01/01 09:15:53;;;;;;;10.27;2.50;;;;;;;6.74;100.00;100210.09;5015590;28;20040;-86
2024/01/01 09:18:19;;;;;;;10.45;2.50;;;;;;;6.75;100.00;100209.22;5032117;28;20045;-85
2024/01/01 09:20:45;;;;;;;9.35;2.20;;;;;;;6.65;100.00;100192.44;5016470;28;20141;-86
2024/01/01 09:23:10;;;;;;;11.15;2.40;;;;;;;6.73;100.00;100211.81;5017059;28;20065;-86
2024/01/01 09:25:40;;;;;;;12.57;2.55;;;;;;;6.76;100.00;100214.47;5031718;28;20034;-84
2024/01/01 09:28:06;;;;;;;12.20;2.80;;;;;;;6.84;100.00;100227.75;5016636;28;20076;-84
2024/01/01 09:30:32;;;;;;;12.38;2.90;;;;;;;6.74;100.00;100197.84;5016513;28;20037;-86
2024/01/01 09:32:57;;;;;;;10.27;2.72;;;;;;;6.87;100.00;100226.91;5031651;28;20489;-87
2024/01/01 09:35:23;;;;;;;7.10;2.30;;;;;;;6.68;100.00;100208.25;5016114;28;20076;-88
2024/01/01 09:37:53;;;;;;;5.75;2.53;;;;;;;6.85;100.00;100254.88;5016763;28;20072;-86
2024/01/01 09:40:20;;;;;;;6.15;2.20;;;;;;;6.76;100.00;100252.97;5015972;28;20034;-87
2024/01/01 09:42:50;;;;;;;5.20;2.10;;;;;;;6.71;100.00;100239.78;5016426;28;20053;-84
2024/01/01 09:45:15;;;;;;;11.25;2.35;;;;;;;6.68;100.00;100250.25;5016562;28;20326;-86
2024/01/01 09:47:43;;;;;;;9.23;2.45;;;;;;;6.65;100.00;100249.31;5016992;28;20493;-84
2024/01/01 09:50:09;;;;;;;11.15;2.67;;;;;;;6.64;100.00;100269.44;5014780;28;20525;-85
2024/01/01 09:52:36;;;;;;;9.60;2.25;;;;;;;6.43;100.00;100242.81;5016192;28;20067;-84
2024/01/01 09:55:02;;;;;;;11.20;2.90;;;;;;;6.62;100.00;100271.13;5016421;28;20030;-84
2024/01/01 09:57:27;;;;;;;11.18;2.63;;;;;;;6.61;100.00;100279.88;5015941;28;20437;-84
2024/01/01 09:59:53;;;;;;;11.43;2.83;;;;;;;6.42;100.00;100230.53;5014842;28;20107;-84
2024/01/01 10:02:23;;;;;;;11.02;2.63;;;;;;;6.67;100.00;100277.34;5014381;28;20387;-83
2024/01/01 10:04:49;;;;;;;9.45;2.72;;;;;;;6.73;100.00;100274.84;5016121;28;20084;-83
2024/01/01 10:07:27;;;;;;;10.32;2.63;;;;;;;6.46;100.00;100230.59;5014433;28;20038;-84
2024/01/01 10:09:53;;;;;;;9.50;2.70;;;;;;;6.75;100.00;100278.38;5030805;28;20065;-85
2024/01/01 10:12:21;;;;;;;9.43;2.33;;;;;;;6.84;100.00;100282.88;5015448;28;20088;-86
2024/01/01 10:14:48;;;;;;;10.70;2.30;;;;;;;6.91;100.00;100276.00;5015721;28;20363;-84
2024/01/01 10:17:17;;;;;;;11.85;2.60;;;;;;;6.69;100.00;100244.13;5015565;28;20057;-86
2024/01/01 10:20:02;;;;;;;10.40;2.63;;;;;;;6.97;100.00;100299.72;5015324;28;20493;-84
2024/01/01 10:22:31;;;;;;;7.93;2.33;;;;;;;6.98;100.00;100304.13;5015632;28;20050;-84
2024/01/01 10:25:13;;;;;;;10.90;2.88;;;;;;;6.97;100.00;100302.34;5015493;28;20092;-84
2024/01/01 10:27:39;;;;;;;11.73;2.55;;;;;;;6.99;100.00;100298.91;5014198;28;20037;-84
2024/01/01 10:30:05;;;;;;;12.23;2.78;;;;;;;7.08;100.00;100295.53;4997796;28;20033;-84
2024/01/01 10:32:33;;;;;;;12.48;2.50;;;;;;;7.26;100.00;100293.19;5015605;28;20041;-83
2024/01/01 10:35:01;;;;;;;10.27;2.63;;;;;;;7.57;100.00;100314.66;5014414;28;20038;-83
2024/01/01 10:37:28;;;;;;;14.35;3.03;;;;;;;7.73;100.00;100318.41;5014408;28;20057;-87
2024/01/01 10:39:54;;;;;;;11.50;2.97;;;;;;;7.82;100.00;100292.22;5014146;28;20521;-84
2024/01/01 10:42:20;;;;;;;7.60;2.67;;;;;;;8.14;100.00;100313.69;5015419;28;20041;-83
2024/01/01 10:44:45;;;;;;;10.98;2.78;;;;;;;8.25;100.00;100324.31;5015041;28;20034;-82
2024/01/01 10:47:13;;;;;;;13.40;2.88;;;;;;;8.30;100.00;100322.63;5014404;28;20087;-81
2024/01/01 10:49:52;;;;;;;11.48;2.90;;;;;;;8.38;100.00;100338.53;5014808;28;20080;-84
2024/01/01 10:52:44;;;;;;;10.10;2.80;;;;;;;8.38;100.00;100330.66;5015025;28;20026;-83
2024/01/01 10:55:33;;;;;;;9.05;2.50;;;;;;;8.12;100.00;100299.63;5013932;28;20382;-83
2024/01/01 10:58:17;;;;;;;14.07;2.95;;;;;;;8.20;100.00;100326.03;5013969;28;20105;-82
2024/01/01 11:00:52;;;;;;;13.10;2.85;;;;;;;8.12;100.00;100319.78;5014769;28;20030;-81
2024/01/01 11:03:17;;;;;;;16.33;3.28;;;;;;;8.08;100.00;100333.75;5014609;28;20076;-83
2024/01/01 11:05:44;;;;;;;12.82;2.90;;;;;;;7.95;100.00;100295.91;5014538;28;20038;-83
2024/01/01 11:08:10;;;;;;;14.25;3.53;;;;;;;8.00;100.00;100324.00;5014521;28;20026;-91
2024/01/01 11:10:44;;;;;;;7.47;2.22;;;;;;;7.86;100.00;100301.03;5013191;28;20129;-85
2024/01/01 11:13:12;;;;;;;16.70;3.10;;;;;;;7.90;100.00;100332.66;5014460;28;20025;-83
2024/01/01 11:15:45;;;;;;;15.20;3.10;;;;;;;7.89;100.00;100351.06;5014300;28;20038;-85
2024/01/01 11:18:11;;;;;;;11.93;3.20;;;;;;;7.86;100.00;100345.75;5014835;28;20026;-82
2024/01/01 11:20:54;;;;;;;10.55;2.63;;;;;;;7.68;100.00;100331.50;5014356;28;20117;-83
2024/01/01 11:23:45;;;;;;;15.85;3.30;;;;;;;7.74;100.00;100355.22;5014195;28;20041;-83